Forty Two — WDD4780 — position and weather

sailwx.info

Track history (hours):
 
Tides and Currents Weather Stations Pressure Air Temp Water Temp Dewpoint Dewpoint Depression Visibility Wind Speed Wind Dir Waves Ship Positions

Forty Two

Owner: allen, christopher h, port angeles, WA. More information available from US FCC via Universal Licensing System and Coast Guard Vessel Documentation Center.

Last reported at 2017-May-25 02:12 UTC. Time now 2017-May-25 05:13 UTC.
Position N 29°47' W 092°11'.

Length 38 m.

Type: Passenger vessel. MMSI: 367455780.

Date/timePositionNaut miles runAvg speedWind from/ knotsBaromVisibWave heightAir tempDewpointWater temp
2017-May-25 02:12N 29°47' W 092°11'0 0.0
2017-May-25 02:01N 29°47' W 092°11'0 0.0
2017-May-25 01:31N 29°47' W 092°11'0 0.0
2017-May-25 01:01N 29°47' W 092°11'0 0.0
2017-May-25 00:31N 29°47' W 092°11'1 1.3
2017-May-25 00:00N 29°46' W 092°11'815.6
2017-May-24 23:30N 29°40' W 092°15'5 0.3
2017-May-24 05:05N 29°36' W 092°18'216.8
2017-May-24 04:59N 29°37' W 092°17'715.0
2017-May-24 04:31N 29°44' W 092°15'4 8.4
2017-May-24 04:00N 29°47' W 092°11'0 0.0
2017-May-24 03:30N 29°47' W 092°11'0 0.0
2017-May-24 03:00N 29°47' W 092°11'0 0.0
2017-May-24 02:30N 29°47' W 092°11'0 0.0
2017-May-24 02:00N 29°47' W 092°11'0 0.0
2017-May-24 01:30N 29°47' W 092°11'0 0.0
2017-May-24 01:00N 29°47' W 092°11'0 0.0
2017-May-24 00:30N 29°47' W 092°11'0 0.0
2017-May-24 00:00N 29°47' W 092°11'0 0.0
2017-May-23 23:30N 29°47' W 092°11'0 0.0
2017-May-23 23:00N 29°47' W 092°11'1 2.6
2017-May-23 22:30N 29°47' W 092°10'3 5.5
2017-May-23 22:00N 29°49' W 092°08'0 0.5
2017-May-23 21:30N 29°49' W 092°08'0 0.0
2017-May-23 21:00N 29°49' W 092°08'0 0.0
2017-May-23 20:30N 29°49' W 092°08'0 0.0
2017-May-23 20:00N 29°49' W 092°08'0 0.0
2017-May-23 19:30N 29°49' W 092°08'0 0.0
2017-May-23 19:00N 29°49' W 092°08'0 0.0
2017-May-23 18:30N 29°49' W 092°08'0 0.0
2017-May-23 18:00N 29°49' W 092°08'0 0.0
2017-May-23 17:30N 29°49' W 092°08'0 0.0
2017-May-23 17:00N 29°49' W 092°08'0 0.0
2017-May-23 16:30N 29°49' W 092°08'0 0.0
2017-May-23 16:00N 29°49' W 092°08'0 0.0
2017-May-23 15:30N 29°49' W 092°08'0 0.0
2017-May-23 15:00N 29°49' W 092°08'2 3.3
2017-May-23 14:30N 29°48' W 092°08'1 1.2
2017-May-23 13:30N 29°47' W 092°09'1 2.1
2017-May-23 13:00N 29°48' W 092°08'2 3.7
2017-May-23 12:30N 29°49' W 092°08'0 0.0
2017-May-23 12:00N 29°49' W 092°08'0 0.0
2017-May-23 11:30N 29°49' W 092°08'0 0.0
2017-May-23 11:00N 29°49' W 092°08'0 0.0
2017-May-23 10:30N 29°49' W 092°08'0 0.0
2017-May-23 10:00N 29°49' W 092°08'0 0.0
2017-May-23 09:30N 29°49' W 092°08'0 0.0
2017-May-23 09:00N 29°49' W 092°08'0 0.0
2017-May-23 08:30N 29°49' W 092°08'0 0.0
2017-May-23 08:00N 29°49' W 092°08'0 0.0
2017-May-23 07:30N 29°49' W 092°08'0 0.0
2017-May-23 07:00N 29°49' W 092°08'0 0.0
2017-May-23 06:30N 29°49' W 092°08'0 0.0
2017-May-23 06:00N 29°49' W 092°08'0 0.0
2017-May-23 05:30N 29°49' W 092°08'0 0.0
2017-May-23 04:05N 29°49' W 092°08'0 0.1
2017-May-23 04:00N 29°49' W 092°08'0 0.0
2017-May-23 03:30N 29°49' W 092°08'0 0.0
2017-May-23 03:00N 29°49' W 092°08'0 0.0
2017-May-23 02:30N 29°49' W 092°08'0 0.0
2017-May-23 02:00N 29°49' W 092°08'0 0.0
2017-May-23 01:30N 29°49' W 092°08'0 0.0
2017-May-23 01:00N 29°49' W 092°08'0 0.0
2017-May-23 00:30N 29°49' W 092°08'0 0.0
2017-May-23 00:00N 29°49' W 092°08'0 0.0
2017-May-22 23:30N 29°49' W 092°08'0 0.0
2017-May-22 23:00N 29°49' W 092°08'0 0.0
2017-May-22 22:30N 29°49' W 092°08'0 0.0
2017-May-22 22:00N 29°49' W 092°08'0 0.0
2017-May-22 21:30N 29°49' W 092°08'0 0.0
2017-May-22 21:00N 29°49' W 092°08'0 0.0
2017-May-22 20:30N 29°49' W 092°08'0 0.0
2017-May-22 20:00N 29°49' W 092°08'0 0.0
2017-May-22 19:30N 29°49' W 092°08'0 0.0
2017-May-22 19:00N 29°49' W 092°08'0 0.0
2017-May-22 18:30N 29°49' W 092°08'0 0.0
2017-May-22 18:00N 29°49' W 092°08'0 0.0
2017-May-22 17:30N 29°49' W 092°08'0 0.0
2017-May-22 17:00N 29°49' W 092°08'0 0.0
2017-May-22 16:30N 29°49' W 092°08'0 0.0
2017-May-22 16:00N 29°49' W 092°08'0 0.0
2017-May-22 15:30N 29°49' W 092°08'0 0.0
2017-May-22 15:00N 29°50' W 092°08'0 0.0
2017-May-22 14:00N 29°49' W 092°08'0 0.1
2017-May-22 13:30N 29°49' W 092°08'0 0.0
2017-May-22 13:00N 29°49' W 092°08'0 0.0
2017-May-22 12:30N 29°49' W 092°08'0 0.0
2017-May-22 12:00N 29°49' W 092°08'0 0.0
2017-May-22 11:30N 29°49' W 092°08'0 0.0
2017-May-22 11:00N 29°49' W 092°08'0 0.0
2017-May-22 10:30N 29°49' W 092°08'0 0.0
2017-May-22 10:00N 29°49' W 092°08'0 0.0
2017-May-22 09:30N 29°49' W 092°08'0 0.0
2017-May-22 09:00N 29°49' W 092°08'0 0.0
2017-May-22 08:30N 29°49' W 092°08'0 0.0
2017-May-22 08:00N 29°49' W 092°08'0 0.0
2017-May-22 07:30N 29°49' W 092°08'0 0.0
2017-May-22 07:00N 29°49' W 092°08'0 0.0
2017-May-22 06:30N 29°49' W 092°08'0 0.0
2017-May-22 06:00N 29°49' W 092°08'0 0.0
2017-May-22 05:30N 29°49' W 092°08'0 0.0
2017-May-22 03:58N 29°49' W 092°08'0 0.0
2017-May-22 03:30N 29°49' W 092°08'0 0.0
2017-May-22 03:00N 29°49' W 092°08'0 0.0
2017-May-22 02:30N 29°49' W 092°08'0 0.0
2017-May-22 02:00N 29°49' W 092°08'0 0.0
2017-May-22 01:30N 29°49' W 092°08'0 0.0
2017-May-22 01:00N 29°49' W 092°08'0 0.0
2017-May-22 00:30N 29°49' W 092°08'0 0.0
2017-May-22 00:00N 29°49' W 092°08'0 0.0
2017-May-21 23:30N 29°49' W 092°08'0 0.0
2017-May-21 23:00N 29°49' W 092°08'0 0.0
2017-May-21 22:30N 29°49' W 092°08'0 0.0
2017-May-21 22:00N 29°49' W 092°08'0 0.0
2017-May-21 21:30N 29°49' W 092°08'0 0.0
2017-May-21 21:00N 29°49' W 092°08'0 0.0
2017-May-21 20:30N 29°49' W 092°08'0 0.0
2017-May-21 20:00N 29°49' W 092°08'0 0.0
2017-May-21 19:30N 29°49' W 092°08'0 0.0
2017-May-21 19:00N 29°49' W 092°08'0 0.0
2017-May-21 18:30N 29°49' W 092°08'0 0.0
2017-May-21 18:00N 29°49' W 092°08'0 0.0
2017-May-21 17:30N 29°49' W 092°08'0 0.0
2017-May-21 17:00N 29°49' W 092°08'0 0.0
2017-May-21 16:30N 29°49' W 092°08'0 0.0
2017-May-21 16:00N 29°49' W 092°08'0 0.0
2017-May-21 15:30N 29°49' W 092°08'0 0.0
2017-May-21 15:00N 29°49' W 092°08'0 0.0
2017-May-21 14:30N 29°49' W 092°08'0 0.0
2017-May-21 13:30N 29°49' W 092°08'0 0.0
2017-May-21 13:00N 29°49' W 092°08'0 0.0
2017-May-21 12:30N 29°49' W 092°08'0 0.0
2017-May-21 12:00N 29°49' W 092°08'0 0.0
2017-May-21 11:30N 29°49' W 092°08'0 0.0
2017-May-21 11:00N 29°49' W 092°08'0 0.0
2017-May-21 10:30N 29°49' W 092°08'0 0.0
2017-May-21 10:00N 29°49' W 092°08'0 0.0
2017-May-21 09:30N 29°49' W 092°08'0 0.0
2017-May-21 09:00N 29°49' W 092°08'0 0.0
2017-May-21 08:30N 29°49' W 092°08'0 0.0
2017-May-21 08:00N 29°49' W 092°08'0 0.0
2017-May-21 07:30N 29°49' W 092°08'0 0.0
2017-May-21 07:00N 29°49' W 092°08'0 0.0
2017-May-21 06:30N 29°49' W 092°08'0 0.0
2017-May-21 04:43N 29°49' W 092°08'0 0.0
2017-May-21 04:30N 29°49' W 092°08'0 0.0
2017-May-21 04:00N 29°49' W 092°08'0 0.0
2017-May-21 03:30N 29°49' W 092°08'0 0.0
2017-May-21 03:00N 29°49' W 092°08'0 0.0
2017-May-21 02:30N 29°49' W 092°08'0 0.0
2017-May-21 02:00N 29°49' W 092°08'0 0.0
2017-May-21 01:30N 29°49' W 092°08'0 0.0
2017-May-21 01:00N 29°49' W 092°08'0 0.0
2017-May-21 00:30N 29°49' W 092°08'0 0.0
2017-May-21 00:00N 29°49' W 092°08'0 0.0
2017-May-20 23:30N 29°49' W 092°08'0 0.0
2017-May-20 23:00N 29°49' W 092°08'0 0.0
2017-May-20 22:30N 29°49' W 092°08'0 0.0
2017-May-20 22:00N 29°49' W 092°08'0 0.0
2017-May-20 21:30N 29°49' W 092°08'0 0.0
2017-May-20 21:00N 29°49' W 092°08'0 0.0
2017-May-20 20:30N 29°49' W 092°08'0 0.0
2017-May-20 20:00N 29°49' W 092°08'0 0.0
2017-May-20 19:30N 29°49' W 092°08'0 0.0
2017-May-20 19:00N 29°49' W 092°08'0 0.0
2017-May-20 18:30N 29°49' W 092°08'0 0.0
2017-May-20 18:00N 29°49' W 092°08'0 0.0
2017-May-20 17:30N 29°49' W 092°08'0 0.0
2017-May-20 17:00N 29°49' W 092°08'0 0.0
2017-May-20 16:30N 29°49' W 092°08'0 0.0
2017-May-20 16:00N 29°49' W 092°08'0 0.0
2017-May-20 15:30N 29°49' W 092°08'0 0.0
2017-May-20 15:00N 29°49' W 092°08'0 0.0
2017-May-20 14:00N 29°49' W 092°08'0 0.0
2017-May-20 13:30N 29°49' W 092°08'0 0.0
2017-May-20 13:00N 29°49' W 092°08'0 0.0
2017-May-20 12:30N 29°49' W 092°08'0 0.0
2017-May-20 12:00N 29°49' W 092°08'0 0.0
2017-May-20 11:30N 29°49' W 092°08'0 0.0
2017-May-20 11:00N 29°49' W 092°08'0 0.0
2017-May-20 10:30N 29°49' W 092°08'0 0.0
2017-May-20 10:00N 29°49' W 092°08'0 0.0
2017-May-20 09:30N 29°49' W 092°08'0 0.0
2017-May-20 09:00N 29°49' W 092°08'0 0.0
2017-May-20 08:30N 29°49' W 092°08'0 0.0
2017-May-20 08:00N 29°49' W 092°08'0 0.0
2017-May-20 07:30N 29°49' W 092°08'0 0.0
2017-May-20 07:00N 29°49' W 092°08'0 0.0
2017-May-20 06:30N 29°49' W 092°08'0 0.0
2017-May-20 05:37N 29°49' W 092°08'0 0.0
2017-May-20 05:30N 29°49' W 092°08'0 0.0
2017-May-20 05:00N 29°49' W 092°08'0 0.0
2017-May-20 04:30N 29°49' W 092°08'0 0.0
2017-May-20 04:00N 29°49' W 092°08'0 0.0
2017-May-20 03:30N 29°49' W 092°08'0 0.0
2017-May-20 03:00N 29°49' W 092°08'0 0.0
2017-May-20 02:30N 29°49' W 092°08'0 0.0
2017-May-20 02:00N 29°49' W 092°08'0 0.0
2017-May-20 01:30N 29°49' W 092°08'0 0.0
2017-May-20 01:00N 29°49' W 092°08'0 0.0
2017-May-20 00:30N 29°49' W 092°08'0 0.0
2017-May-20 00:00N 29°49' W 092°08'0 0.0
2017-May-19 23:30N 29°49' W 092°08'0 0.0
2017-May-19 23:00N 29°49' W 092°08'0 0.0
2017-May-19 22:30N 29°49' W 092°08'0 0.0
2017-May-19 22:00N 29°49' W 092°08'0 0.0
2017-May-19 21:30N 29°49' W 092°08'0 0.0
2017-May-19 21:00N 29°49' W 092°08'0 0.0
2017-May-19 20:30N 29°49' W 092°08'0 0.0
2017-May-19 20:00N 29°49' W 092°08'0 0.0
2017-May-19 19:30N 29°49' W 092°08'0 0.0
2017-May-19 19:00N 29°49' W 092°08'0 0.0
2017-May-19 18:30N 29°49' W 092°08'0 0.0
2017-May-19 18:00N 29°49' W 092°08'0 0.0
2017-May-19 17:30N 29°49' W 092°08'0 0.0
2017-May-19 17:00N 29°49' W 092°08'0 0.0
2017-May-19 16:30N 29°49' W 092°08'0 0.0
2017-May-19 16:00N 29°49' W 092°08'0 0.0
2017-May-19 15:30N 29°49' W 092°08'0 0.0
2017-May-19 15:00N 29°49' W 092°08'0 0.0
2017-May-19 14:30N 29°49' W 092°08'0 0.0
2017-May-19 13:30N 29°49' W 092°08'0 0.0
2017-May-19 13:00N 29°49' W 092°08'0 0.0
2017-May-19 12:30N 29°49' W 092°08'0 0.0
2017-May-19 12:00N 29°49' W 092°08'0 0.0
2017-May-19 11:30N 29°49' W 092°08'0 0.0
2017-May-19 11:00N 29°49' W 092°08'0 0.0
2017-May-19 10:30N 29°49' W 092°08'0 0.0
2017-May-19 10:00N 29°49' W 092°08'0 0.0
2017-May-19 09:30N 29°49' W 092°08'0 0.0
2017-May-19 09:00N 29°49' W 092°08'0 0.0
2017-May-19 08:30N 29°49' W 092°08'0 0.0
2017-May-19 08:00N 29°49' W 092°08'0 0.0
2017-May-19 07:30N 29°49' W 092°08'0 0.0
2017-May-19 07:00N 29°49' W 092°08'0 0.0
2017-May-19 06:30N 29°49' W 092°08'0 0.0
2017-May-19 06:00N 29°49' W 092°08'0 0.0
2017-May-19 05:30N 29°49' W 092°08'0 0.0
2017-May-19 04:04N 29°49' W 092°08'0 0.1
2017-May-19 04:01N 29°49' W 092°08'0 0.0
2017-May-19 03:31N 29°49' W 092°08'0 0.0
2017-May-19 03:01N 29°49' W 092°08'0 0.0
2017-May-19 02:31N 29°49' W 092°08'0 0.0
2017-May-19 02:01N 29°49' W 092°08'0 0.0
2017-May-19 01:30N 29°49' W 092°08'0 0.0
2017-May-19 01:01N 29°49' W 092°08'0 0.0
2017-May-19 00:31N 29°49' W 092°08'0 0.0
2017-May-19 00:01N 29°49' W 092°08'0 0.0
2017-May-18 23:31N 29°49' W 092°08'0 0.0
2017-May-18 23:01N 29°49' W 092°08'0 0.0
2017-May-18 22:31N 29°49' W 092°08'0 0.0
2017-May-18 22:00N 29°49' W 092°08'0 0.0
2017-May-18 21:30N 29°49' W 092°08'0 0.0
2017-May-18 21:01N 29°49' W 092°08'0 0.0
2017-May-18 20:31N 29°49' W 092°08'0 0.0
2017-May-18 20:01N 29°49' W 092°08'0 0.0
2017-May-18 19:30N 29°49' W 092°08'0 0.0
2017-May-18 19:01N 29°49' W 092°08'0 0.0
2017-May-18 18:30N 29°49' W 092°08'0 0.0
2017-May-18 18:01N 29°49' W 092°08'0 0.0
2017-May-18 17:31N 29°49' W 092°08'0 0.0
2017-May-18 17:00N 29°49' W 092°08'0 0.0
2017-May-18 16:30N 29°49' W 092°08'0 0.0
2017-May-18 16:00N 29°49' W 092°08'0 0.0
2017-May-18 15:30N 29°49' W 092°08'0 0.0
2017-May-18 15:00N 29°49' W 092°08'0 0.0
2017-May-18 14:31N 29°49' W 092°08'0 0.0
2017-May-18 13:31N 29°49' W 092°08'0 0.0
2017-May-18 13:01N 29°49' W 092°08'0 0.0
2017-May-18 12:31N 29°49' W 092°08'0 0.0
2017-May-18 12:01N 29°49' W 092°08'0 0.0
2017-May-18 11:31N 29°49' W 092°08'0 0.0
2017-May-18 11:01N 29°49' W 092°08'0 0.0
2017-May-18 10:30N 29°49' W 092°08'0 0.0
2017-May-18 10:00N 29°49' W 092°08'0 0.0
2017-May-18 09:31N 29°49' W 092°08'0 0.0
2017-May-18 09:01N 29°49' W 092°08'0 0.0
2017-May-18 08:31N 29°49' W 092°08'0 0.0
2017-May-18 08:01N 29°49' W 092°08'0 0.0
2017-May-18 07:31N 29°49' W 092°08'0 0.0
2017-May-18 07:01N 29°49' W 092°08'0 0.0
2017-May-18 06:31N 29°49' W 092°08'0 0.0
2017-May-18 04:57N 29°49' W 092°08'0 0.0
2017-May-18 04:30N 29°49' W 092°08'0 0.0
2017-May-18 04:00N 29°49' W 092°08'0 0.0
2017-May-18 03:30N 29°49' W 092°08'0 0.0
2017-May-18 03:00N 29°49' W 092°08'0 0.0
2017-May-18 02:30N 29°49' W 092°08'0 0.0
2017-May-18 02:00N 29°49' W 092°08'0 0.0
2017-May-18 01:30N 29°49' W 092°08'0 0.0
2017-May-18 01:00N 29°49' W 092°08'0 0.0
2017-May-18 00:30N 29°49' W 092°08'0 0.0
2017-May-18 00:00N 29°49' W 092°08'0 0.0
2017-May-17 23:30N 29°49' W 092°08'0 0.0
2017-May-17 23:00N 29°49' W 092°08'0 0.0
2017-May-17 22:30N 29°49' W 092°08'0 0.0
2017-May-17 22:00N 29°49' W 092°08'0 0.0
2017-May-17 21:30N 29°49' W 092°08'0 0.0
2017-May-17 21:00N 29°49' W 092°08'0 0.0
2017-May-17 20:30N 29°49' W 092°08'0 0.0
2017-May-17 20:00N 29°49' W 092°08'0 0.0
2017-May-17 19:30N 29°49' W 092°08'0 0.0
2017-May-17 19:00N 29°49' W 092°08'0 0.0
2017-May-17 18:30N 29°49' W 092°08'  
Track history (hours):
 
Tides and Currents Weather Stations Pressure Air Temp Water Temp Dewpoint Dewpoint Depression Visibility Wind Speed Wind Dir Waves Ship Positions

Forty Two

Owner: allen, christopher h, port angeles, WA. More information available from US FCC via Universal Licensing System and Coast Guard Vessel Documentation Center.

Last reported at 2017-May-25 02:12 UTC. Time now 2017-May-25 05:13 UTC.
Position N 29°47' W 092°11'.

Length 38 m.

Type: Passenger vessel. MMSI: 367455780.

Date/timePositionNaut miles runAvg speedWind from/ knotsBaromVisibWave heightAir tempDewpointWater temp
2017-May-25 02:12N 29°47' W 092°11'0 0.0
2017-May-25 02:01N 29°47' W 092°11'0 0.0
2017-May-25 01:31N 29°47' W 092°11'0 0.0
2017-May-25 01:01N 29°47' W 092°11'0 0.0
2017-May-25 00:31N 29°47' W 092°11'1 1.3
2017-May-25 00:00N 29°46' W 092°11'815.6
2017-May-24 23:30N 29°40' W 092°15'5 0.3
2017-May-24 05:05N 29°36' W 092°18'216.8
2017-May-24 04:59N 29°37' W 092°17'715.0
2017-May-24 04:31N 29°44' W 092°15'4 8.4
2017-May-24 04:00N 29°47' W 092°11'0 0.0
2017-May-24 03:30N 29°47' W 092°11'0 0.0
2017-May-24 03:00N 29°47' W 092°11'0 0.0
2017-May-24 02:30N 29°47' W 092°11'0 0.0
2017-May-24 02:00N 29°47' W 092°11'0 0.0
2017-May-24 01:30N 29°47' W 092°11'0 0.0
2017-May-24 01:00N 29°47' W 092°11'0 0.0
2017-May-24 00:30N 29°47' W 092°11'0 0.0
2017-May-24 00:00N 29°47' W 092°11'0 0.0
2017-May-23 23:30N 29°47' W 092°11'0 0.0
2017-May-23 23:00N 29°47' W 092°11'1 2.6
2017-May-23 22:30N 29°47' W 092°10'3 5.5
2017-May-23 22:00N 29°49' W 092°08'0 0.5
2017-May-23 21:30N 29°49' W 092°08'0 0.0
2017-May-23 21:00N 29°49' W 092°08'0 0.0
2017-May-23 20:30N 29°49' W 092°08'0 0.0
2017-May-23 20:00N 29°49' W 092°08'0 0.0
2017-May-23 19:30N 29°49' W 092°08'0 0.0
2017-May-23 19:00N 29°49' W 092°08'0 0.0
2017-May-23 18:30N 29°49' W 092°08'0 0.0
2017-May-23 18:00N 29°49' W 092°08'0 0.0
2017-May-23 17:30N 29°49' W 092°08'0 0.0
2017-May-23 17:00N 29°49' W 092°08'0 0.0
2017-May-23 16:30N 29°49' W 092°08'0 0.0
2017-May-23 16:00N 29°49' W 092°08'0 0.0
2017-May-23 15:30N 29°49' W 092°08'0 0.0
2017-May-23 15:00N 29°49' W 092°08'2 3.3
2017-May-23 14:30N 29°48' W 092°08'1 1.2
2017-May-23 13:30N 29°47' W 092°09'1 2.1
2017-May-23 13:00N 29°48' W 092°08'2 3.7
2017-May-23 12:30N 29°49' W 092°08'0 0.0
2017-May-23 12:00N 29°49' W 092°08'0 0.0
2017-May-23 11:30N 29°49' W 092°08'0 0.0
2017-May-23 11:00N 29°49' W 092°08'0 0.0
2017-May-23 10:30N 29°49' W 092°08'0 0.0
2017-May-23 10:00N 29°49' W 092°08'0 0.0
2017-May-23 09:30N 29°49' W 092°08'0 0.0
2017-May-23 09:00N 29°49' W 092°08'0 0.0
2017-May-23 08:30N 29°49' W 092°08'0 0.0
2017-May-23 08:00N 29°49' W 092°08'0 0.0
2017-May-23 07:30N 29°49' W 092°08'0 0.0
2017-May-23 07:00N 29°49' W 092°08'0 0.0
2017-May-23 06:30N 29°49' W 092°08'0 0.0
2017-May-23 06:00N 29°49' W 092°08'0 0.0
2017-May-23 05:30N 29°49' W 092°08'0 0.0
2017-May-23 04:05N 29°49' W 092°08'0 0.1
2017-May-23 04:00N 29°49' W 092°08'0 0.0
2017-May-23 03:30N 29°49' W 092°08'0 0.0
2017-May-23 03:00N 29°49' W 092°08'0 0.0
2017-May-23 02:30N 29°49' W 092°08'0 0.0
2017-May-23 02:00N 29°49' W 092°08'0 0.0
2017-May-23 01:30N 29°49' W 092°08'0 0.0
2017-May-23 01:00N 29°49' W 092°08'0 0.0
2017-May-23 00:30N 29°49' W 092°08'0 0.0
2017-May-23 00:00N 29°49' W 092°08'0 0.0
2017-May-22 23:30N 29°49' W 092°08'0 0.0
2017-May-22 23:00N 29°49' W 092°08'0 0.0
2017-May-22 22:30N 29°49' W 092°08'0 0.0
2017-May-22 22:00N 29°49' W 092°08'0 0.0
2017-May-22 21:30N 29°49' W 092°08'0 0.0
2017-May-22 21:00N 29°49' W 092°08'0 0.0
2017-May-22 20:30N 29°49' W 092°08'0 0.0
2017-May-22 20:00N 29°49' W 092°08'0 0.0
2017-May-22 19:30N 29°49' W 092°08'0 0.0
2017-May-22 19:00N 29°49' W 092°08'0 0.0
2017-May-22 18:30N 29°49' W 092°08'0 0.0
2017-May-22 18:00N 29°49' W 092°08'0 0.0
2017-May-22 17:30N 29°49' W 092°08'0 0.0
2017-May-22 17:00N 29°49' W 092°08'0 0.0
2017-May-22 16:30N 29°49' W 092°08'0 0.0
2017-May-22 16:00N 29°49' W 092°08'0 0.0
2017-May-22 15:30N 29°49' W 092°08'0 0.0
2017-May-22 15:00N 29°50' W 092°08'0 0.0
2017-May-22 14:00N 29°49' W 092°08'0 0.1
2017-May-22 13:30N 29°49' W 092°08'0 0.0
2017-May-22 13:00N 29°49' W 092°08'0 0.0
2017-May-22 12:30N 29°49' W 092°08'0 0.0
2017-May-22 12:00N 29°49' W 092°08'0 0.0
2017-May-22 11:30N 29°49' W 092°08'0 0.0
2017-May-22 11:00N 29°49' W 092°08'0 0.0
2017-May-22 10:30N 29°49' W 092°08'0 0.0
2017-May-22 10:00N 29°49' W 092°08'0 0.0
2017-May-22 09:30N 29°49' W 092°08'0 0.0
2017-May-22 09:00N 29°49' W 092°08'0 0.0
2017-May-22 08:30N 29°49' W 092°08'0 0.0
2017-May-22 08:00N 29°49' W 092°08'0 0.0
2017-May-22 07:30N 29°49' W 092°08'0 0.0
2017-May-22 07:00N 29°49' W 092°08'0 0.0
2017-May-22 06:30N 29°49' W 092°08'0 0.0
2017-May-22 06:00N 29°49' W 092°08'0 0.0
2017-May-22 05:30N 29°49' W 092°08'0 0.0
2017-May-22 03:58N 29°49' W 092°08'0 0.0
2017-May-22 03:30N 29°49' W 092°08'0 0.0
2017-May-22 03:00N 29°49' W 092°08'0 0.0
2017-May-22 02:30N 29°49' W 092°08'0 0.0
2017-May-22 02:00N 29°49' W 092°08'0 0.0
2017-May-22 01:30N 29°49' W 092°08'0 0.0
2017-May-22 01:00N 29°49' W 092°08'0 0.0
2017-May-22 00:30N 29°49' W 092°08'0 0.0
2017-May-22 00:00N 29°49' W 092°08'0 0.0
2017-May-21 23:30N 29°49' W 092°08'0 0.0
2017-May-21 23:00N 29°49' W 092°08'0 0.0
2017-May-21 22:30N 29°49' W 092°08'0 0.0
2017-May-21 22:00N 29°49' W 092°08'0 0.0
2017-May-21 21:30N 29°49' W 092°08'0 0.0
2017-May-21 21:00N 29°49' W 092°08'0 0.0
2017-May-21 20:30N 29°49' W 092°08'0 0.0
2017-May-21 20:00N 29°49' W 092°08'0 0.0
2017-May-21 19:30N 29°49' W 092°08'0 0.0
2017-May-21 19:00N 29°49' W 092°08'0 0.0
2017-May-21 18:30N 29°49' W 092°08'0 0.0
2017-May-21 18:00N 29°49' W 092°08'0 0.0
2017-May-21 17:30N 29°49' W 092°08'0 0.0
2017-May-21 17:00N 29°49' W 092°08'0 0.0
2017-May-21 16:30N 29°49' W 092°08'0 0.0
2017-May-21 16:00N 29°49' W 092°08'0 0.0
2017-May-21 15:30N 29°49' W 092°08'0 0.0
2017-May-21 15:00N 29°49' W 092°08'0 0.0
2017-May-21 14:30N 29°49' W 092°08'0 0.0
2017-May-21 13:30N 29°49' W 092°08'0 0.0
2017-May-21 13:00N 29°49' W 092°08'0 0.0
2017-May-21 12:30N 29°49' W 092°08'0 0.0
2017-May-21 12:00N 29°49' W 092°08'0 0.0
2017-May-21 11:30N 29°49' W 092°08'0 0.0
2017-May-21 11:00N 29°49' W 092°08'0 0.0
2017-May-21 10:30N 29°49' W 092°08'0 0.0
2017-May-21 10:00N 29°49' W 092°08'0 0.0
2017-May-21 09:30N 29°49' W 092°08'0 0.0
2017-May-21 09:00N 29°49' W 092°08'0 0.0
2017-May-21 08:30N 29°49' W 092°08'0 0.0
2017-May-21 08:00N 29°49' W 092°08'0 0.0
2017-May-21 07:30N 29°49' W 092°08'0 0.0
2017-May-21 07:00N 29°49' W 092°08'0 0.0
2017-May-21 06:30N 29°49' W 092°08'0 0.0
2017-May-21 04:43N 29°49' W 092°08'0 0.0
2017-May-21 04:30N 29°49' W 092°08'0 0.0
2017-May-21 04:00N 29°49' W 092°08'0 0.0
2017-May-21 03:30N 29°49' W 092°08'0 0.0
2017-May-21 03:00N 29°49' W 092°08'0 0.0
2017-May-21 02:30N 29°49' W 092°08'0 0.0
2017-May-21 02:00N 29°49' W 092°08'0 0.0
2017-May-21 01:30N 29°49' W 092°08'0 0.0
2017-May-21 01:00N 29°49' W 092°08'0 0.0
2017-May-21 00:30N 29°49' W 092°08'0 0.0
2017-May-21 00:00N 29°49' W 092°08'0 0.0
2017-May-20 23:30N 29°49' W 092°08'0 0.0
2017-May-20 23:00N 29°49' W 092°08'0 0.0
2017-May-20 22:30N 29°49' W 092°08'0 0.0
2017-May-20 22:00N 29°49' W 092°08'0 0.0
2017-May-20 21:30N 29°49' W 092°08'0 0.0
2017-May-20 21:00N 29°49' W 092°08'0 0.0
2017-May-20 20:30N 29°49' W 092°08'0 0.0
2017-May-20 20:00N 29°49' W 092°08'0 0.0
2017-May-20 19:30N 29°49' W 092°08'0 0.0
2017-May-20 19:00N 29°49' W 092°08'0 0.0
2017-May-20 18:30N 29°49' W 092°08'0 0.0
2017-May-20 18:00N 29°49' W 092°08'0 0.0
2017-May-20 17:30N 29°49' W 092°08'0 0.0
2017-May-20 17:00N 29°49' W 092°08'0 0.0
2017-May-20 16:30N 29°49' W 092°08'0 0.0
2017-May-20 16:00N 29°49' W 092°08'0 0.0
2017-May-20 15:30N 29°49' W 092°08'0 0.0
2017-May-20 15:00N 29°49' W 092°08'0 0.0
2017-May-20 14:00N 29°49' W 092°08'0 0.0
2017-May-20 13:30N 29°49' W 092°08'0 0.0
2017-May-20 13:00N 29°49' W 092°08'0 0.0
2017-May-20 12:30N 29°49' W 092°08'0 0.0
2017-May-20 12:00N 29°49' W 092°08'0 0.0
2017-May-20 11:30N 29°49' W 092°08'0 0.0
2017-May-20 11:00N 29°49' W 092°08'0 0.0
2017-May-20 10:30N 29°49' W 092°08'0 0.0
2017-May-20 10:00N 29°49' W 092°08'0 0.0
2017-May-20 09:30N 29°49' W 092°08'0 0.0
2017-May-20 09:00N 29°49' W 092°08'0 0.0
2017-May-20 08:30N 29°49' W 092°08'0 0.0
2017-May-20 08:00N 29°49' W 092°08'0 0.0
2017-May-20 07:30N 29°49' W 092°08'0 0.0
2017-May-20 07:00N 29°49' W 092°08'0 0.0
2017-May-20 06:30N 29°49' W 092°08'0 0.0
2017-May-20 05:37N 29°49' W 092°08'0 0.0
2017-May-20 05:30N 29°49' W 092°08'0 0.0
2017-May-20 05:00N 29°49' W 092°08'0 0.0
2017-May-20 04:30N 29°49' W 092°08'0 0.0
2017-May-20 04:00N 29°49' W 092°08'0 0.0
2017-May-20 03:30N 29°49' W 092°08'0 0.0
2017-May-20 03:00N 29°49' W 092°08'0 0.0
2017-May-20 02:30N 29°49' W 092°08'0 0.0
2017-May-20 02:00N 29°49' W 092°08'0 0.0
2017-May-20 01:30N 29°49' W 092°08'0 0.0
2017-May-20 01:00N 29°49' W 092°08'0 0.0
2017-May-20 00:30N 29°49' W 092°08'0 0.0
2017-May-20 00:00N 29°49' W 092°08'0 0.0
2017-May-19 23:30N 29°49' W 092°08'0 0.0
2017-May-19 23:00N 29°49' W 092°08'0 0.0
2017-May-19 22:30N 29°49' W 092°08'0 0.0
2017-May-19 22:00N 29°49' W 092°08'0 0.0
2017-May-19 21:30N 29°49' W 092°08'0 0.0
2017-May-19 21:00N 29°49' W 092°08'0 0.0
2017-May-19 20:30N 29°49' W 092°08'0 0.0
2017-May-19 20:00N 29°49' W 092°08'0 0.0
2017-May-19 19:30N 29°49' W 092°08'0 0.0
2017-May-19 19:00N 29°49' W 092°08'0 0.0
2017-May-19 18:30N 29°49' W 092°08'0 0.0
2017-May-19 18:00N 29°49' W 092°08'0 0.0
2017-May-19 17:30N 29°49' W 092°08'0 0.0
2017-May-19 17:00N 29°49' W 092°08'0 0.0
2017-May-19 16:30N 29°49' W 092°08'0 0.0
2017-May-19 16:00N 29°49' W 092°08'0 0.0
2017-May-19 15:30N 29°49' W 092°08'0 0.0
2017-May-19 15:00N 29°49' W 092°08'0 0.0
2017-May-19 14:30N 29°49' W 092°08'0 0.0
2017-May-19 13:30N 29°49' W 092°08'0 0.0
2017-May-19 13:00N 29°49' W 092°08'0 0.0
2017-May-19 12:30N 29°49' W 092°08'0 0.0
2017-May-19 12:00N 29°49' W 092°08'0 0.0
2017-May-19 11:30N 29°49' W 092°08'0 0.0
2017-May-19 11:00N 29°49' W 092°08'0 0.0
2017-May-19 10:30N 29°49' W 092°08'0 0.0
2017-May-19 10:00N 29°49' W 092°08'0 0.0
2017-May-19 09:30N 29°49' W 092°08'0 0.0
2017-May-19 09:00N 29°49' W 092°08'0 0.0
2017-May-19 08:30N 29°49' W 092°08'0 0.0
2017-May-19 08:00N 29°49' W 092°08'0 0.0
2017-May-19 07:30N 29°49' W 092°08'0 0.0
2017-May-19 07:00N 29°49' W 092°08'0 0.0
2017-May-19 06:30N 29°49' W 092°08'0 0.0
2017-May-19 06:00N 29°49' W 092°08'0 0.0
2017-May-19 05:30N 29°49' W 092°08'0 0.0
2017-May-19 04:04N 29°49' W 092°08'0 0.1
2017-May-19 04:01N 29°49' W 092°08'0 0.0
2017-May-19 03:31N 29°49' W 092°08'0 0.0
2017-May-19 03:01N 29°49' W 092°08'0 0.0
2017-May-19 02:31N 29°49' W 092°08'0 0.0
2017-May-19 02:01N 29°49' W 092°08'0 0.0
2017-May-19 01:30N 29°49' W 092°08'0 0.0
2017-May-19 01:01N 29°49' W 092°08'0 0.0
2017-May-19 00:31N 29°49' W 092°08'0 0.0
2017-May-19 00:01N 29°49' W 092°08'0 0.0
2017-May-18 23:31N 29°49' W 092°08'0 0.0
2017-May-18 23:01N 29°49' W 092°08'0 0.0
2017-May-18 22:31N 29°49' W 092°08'0 0.0
2017-May-18 22:00N 29°49' W 092°08'0 0.0
2017-May-18 21:30N 29°49' W 092°08'0 0.0
2017-May-18 21:01N 29°49' W 092°08'0 0.0
2017-May-18 20:31N 29°49' W 092°08'0 0.0
2017-May-18 20:01N 29°49' W 092°08'0 0.0
2017-May-18 19:30N 29°49' W 092°08'0 0.0
2017-May-18 19:01N 29°49' W 092°08'0 0.0
2017-May-18 18:30N 29°49' W 092°08'0 0.0
2017-May-18 18:01N 29°49' W 092°08'0 0.0
2017-May-18 17:31N 29°49' W 092°08'0 0.0
2017-May-18 17:00N 29°49' W 092°08'0 0.0
2017-May-18 16:30N 29°49' W 092°08'0 0.0
2017-May-18 16:00N 29°49' W 092°08'0 0.0
2017-May-18 15:30N 29°49' W 092°08'0 0.0
2017-May-18 15:00N 29°49' W 092°08'0 0.0
2017-May-18 14:31N 29°49' W 092°08'0 0.0
2017-May-18 13:31N 29°49' W 092°08'0 0.0
2017-May-18 13:01N 29°49' W 092°08'0 0.0
2017-May-18 12:31N 29°49' W 092°08'0 0.0
2017-May-18 12:01N 29°49' W 092°08'0 0.0
2017-May-18 11:31N 29°49' W 092°08'0 0.0
2017-May-18 11:01N 29°49' W 092°08'0 0.0
2017-May-18 10:30N 29°49' W 092°08'0 0.0
2017-May-18 10:00N 29°49' W 092°08'0 0.0
2017-May-18 09:31N 29°49' W 092°08'0 0.0
2017-May-18 09:01N 29°49' W 092°08'0 0.0
2017-May-18 08:31N 29°49' W 092°08'0 0.0
2017-May-18 08:01N 29°49' W 092°08'0 0.0
2017-May-18 07:31N 29°49' W 092°08'0 0.0
2017-May-18 07:01N 29°49' W 092°08'0 0.0
2017-May-18 06:31N 29°49' W 092°08'0 0.0
2017-May-18 04:57N 29°49' W 092°08'0 0.0
2017-May-18 04:30N 29°49' W 092°08'0 0.0
2017-May-18 04:00N 29°49' W 092°08'0 0.0
2017-May-18 03:30N 29°49' W 092°08'0 0.0
2017-May-18 03:00N 29°49' W 092°08'0 0.0
2017-May-18 02:30N 29°49' W 092°08'0 0.0
2017-May-18 02:00N 29°49' W 092°08'0 0.0
2017-May-18 01:30N 29°49' W 092°08'0 0.0
2017-May-18 01:00N 29°49' W 092°08'0 0.0
2017-May-18 00:30N 29°49' W 092°08'0 0.0
2017-May-18 00:00N 29°49' W 092°08'0 0.0
2017-May-17 23:30N 29°49' W 092°08'0 0.0
2017-May-17 23:00N 29°49' W 092°08'0 0.0
2017-May-17 22:30N 29°49' W 092°08'0 0.0
2017-May-17 22:00N 29°49' W 092°08'0 0.0
2017-May-17 21:30N 29°49' W 092°08'0 0.0
2017-May-17 21:00N 29°49' W 092°08'0 0.0
2017-May-17 20:30N 29°49' W 092°08'0 0.0
2017-May-17 20:00N 29°49' W 092°08'0 0.0
2017-May-17 19:30N 29°49' W 092°08'0 0.0
2017-May-17 19:00N 29°49' W 092°08'0 0.0
2017-May-17 18:30N 29°49' W 092°08'  

Dump ship's entire track history